»·PEaware :: N7GL KHII-F70

N7GL :: KHII-F70

FLIGHT INFORMATION

Flight Status: Arrived
Operator: Privately registered:
United States
More flights under this callsign
Pilot: Anonymous 17564 (17564)
Aircraft: GATES LEARJET LEARJET 25
(LJ25)
More flights by this aircraft type
Origin: KHII Lake Havasu City
United States
Destination: F70 French Valley
United States
More flights between these airports :: More routes between these airports
Route: PKE V432 TRM V64 HEMET
File this flight plan on PilotEdge
Remarks:
Altitude:
(Current/Filed)
14,500ft
Speed:
(Current/Filed)
300kts
Departed: 06-Jan-18 02:34 PM
Arrived: 06-Jan-18 03:13 PM
Distance/Time
Traveled:
150nm/0:39
Distance/Time
To Go:
Arrived

Flight Plot

Page will automatically refresh every two minutes.

Flight plan parsing failed; only flown route is shown


Map Options




Map Legend


Flown Route
Filed Route
Departure Airport
Arrival Airport
Navaid (VOR, NDB)
Fix

Horizontal Profiles

Position Reports

Time Latitude Longitude Heading Altitude Ground
Speed
06-Jan-18 14:27 34.569301 -114.359777 238 786ft 0kts
06-Jan-18 14:28 34.569301 -114.359777 238 786ft 0kts
06-Jan-18 14:29 34.569301 -114.359777 238 786ft 0kts
06-Jan-18 14:30 34.569301 -114.359777 238 786ft 0kts
06-Jan-18 14:31 34.569301 -114.359777 238 786ft 0kts
06-Jan-18 14:32 34.569301 -114.359777 238 786ft 0kts
06-Jan-18 14:33 34.569301 -114.359777 238 786ft 0kts
06-Jan-18 14:34 34.569283 -114.359798 216 786ft 1kts
06-Jan-18 14:35 34.569588 -114.359526 347 786ft 2kts
06-Jan-18 14:36 34.571957 -114.360330 330 786ft 12kts
06-Jan-18 14:37 34.575345 -114.362673 330 786ft 15kts
06-Jan-18 14:38 34.578280 -114.364743 330 786ft 11kts
06-Jan-18 14:39 34.580012 -114.365732 36 786ft 9kts
06-Jan-18 14:40 34.566140 -114.354720 150 1204ft 179kts
06-Jan-18 14:41 34.509115 -114.376105 242 3679ft 263kts
06-Jan-18 14:42 34.458813 -114.436365 209 6001ft 256kts
06-Jan-18 14:43 34.396743 -114.479231 210 8297ft 259kts
06-Jan-18 14:44 34.332843 -114.523309 212 10612ft 267kts
06-Jan-18 14:45 34.267762 -114.568197 213 12911ft 272kts
06-Jan-18 14:46 34.200717 -114.614388 213 14488ft 283kts
06-Jan-18 14:47 34.128859 -114.663879 213 14560ft 353kts
06-Jan-18 14:48 34.078689 -114.754558 251 14511ft 330kts
06-Jan-18 14:49 34.046844 -114.858057 249 14506ft 327kts
06-Jan-18 14:50 34.016159 -114.961158 248 14509ft 327kts
06-Jan-18 14:51 33.982266 -115.063453 249 14511ft 329kts
06-Jan-18 14:52 33.949241 -115.166621 249 14513ft 331kts
06-Jan-18 14:53 33.916249 -115.270104 249 14516ft 332kts
06-Jan-18 14:54 33.883072 -115.373986 249 14517ft 331kts
06-Jan-18 14:55 33.850016 -115.477320 249 14515ft 331kts
06-Jan-18 14:56 33.816751 -115.580937 249 14455ft 331kts
06-Jan-18 14:57 33.790947 -115.660550 249 13779ft 296kts
06-Jan-18 14:58 33.755961 -115.768525 249 12154ft 297kts
06-Jan-18 14:59 33.726055 -115.860708 249 10754ft 294kts
06-Jan-18 15:00 33.701332 -115.936626 248 9586ft 292kts
06-Jan-18 15:01 33.671737 -116.027244 248 8184ft 289kts
06-Jan-18 15:02 33.637641 -116.131386 247 6555ft 285kts
06-Jan-18 15:03 33.632142 -116.207636 277 6987ft 283kts
06-Jan-18 15:04 33.640906 -116.302641 274 7417ft 286kts
06-Jan-18 15:05 33.649211 -116.397750 274 7916ft 288kts
06-Jan-18 15:06 33.657512 -116.493609 275 7937ft 288kts
06-Jan-18 15:07 33.665827 -116.589210 275 7944ft 291kts
06-Jan-18 15:08 33.679294 -116.685569 291 7961ft 293kts
06-Jan-18 15:09 33.711921 -116.775323 291 7051ft 291kts
06-Jan-18 15:10 33.742224 -116.864044 291 5059ft 282kts
06-Jan-18 15:11 33.768001 -116.940096 290 4543ft 185kts
06-Jan-18 15:12 33.787283 -116.997214 290 4595ft 186kts
06-Jan-18 15:13 33.795619 -117.055993 241 4623ft 185kts
06-Jan-18 15:14 33.750284 -117.081395 192 4628ft 181kts
06-Jan-18 15:15 33.707190 -117.093249 196 3315ft 136kts
06-Jan-18 15:16 33.666901 -117.103927 193 2958ft 144kts
06-Jan-18 15:17 33.627682 -117.114304 194 2276ft 145kts
06-Jan-18 15:18 33.592000 -117.123776 193 1567ft 133kts
06-Jan-18 15:19 33.575304 -117.128534 235 1353ft 2kts
06-Jan-18 15:20 33.575234 -117.128654 235 1353ft 4kts
06-Jan-18 15:21 33.575463 -117.130105 197 1353ft 8kts
06-Jan-18 15:22 33.574053 -117.130229 163 1353ft 4kts
06-Jan-18 15:23 33.573622 -117.130322 192 1353ft 0kts
06-Jan-18 15:24 33.573622 -117.130322 192 1353ft 0kts
06-Jan-18 15:25 33.573622 -117.130322 192 1353ft 0kts
06-Jan-18 15:26 33.573622 -117.130322 192 1353ft 0kts
06-Jan-18 15:27 33.573622 -117.130322 192 1353ft 0kts
06-Jan-18 15:28 33.573622 -117.130322 192 1353ft 0kts
06-Jan-18 15:29 33.573622 -117.130322 192 1353ft 0kts
06-Jan-18 15:30 33.573622 -117.130322 192 1353ft 0kts
06-Jan-18 15:31 33.573622 -117.130322 192 1353ft 0kts
06-Jan-18 15:32 33.573622 -117.130322 192 1353ft 0kts
06-Jan-18 15:33 33.573622 -117.130322 192 1353ft 0kts

Navigation Log

Ident Type
Flight plan parsing failed, navigation log unavailable